createdAt,value
2019-02-06T00:00:45.941Z,99874.95
2019-02-06T00:03:19.968Z,99866.19
2019-02-06T00:05:49.575Z,99860.14
2019-02-06T00:08:19.052Z,99861.05
2019-02-06T00:10:48.756Z,99844.45
2019-02-06T00:13:18.345Z,99839.59
2019-02-06T00:15:48.250Z,99833.60
2019-02-06T00:18:17.820Z,99842.05
2019-02-06T00:20:47.314Z,99837.12
2019-02-06T00:23:16.747Z,99842.05
2019-02-06T00:25:46.215Z,99839.06
2019-02-06T00:28:15.674Z,99840.89
2019-02-06T00:30:45.376Z,99844.77
2019-02-06T00:33:14.859Z,99849.56
2019-02-06T00:35:44.265Z,99856.82
2019-02-06T00:38:13.792Z,99850.94
2019-02-06T00:40:43.257Z,99854.30
2019-02-06T00:43:12.696Z,99848.09
2019-02-06T00:45:42.624Z,99849.98
2019-02-06T00:48:12.088Z,99842.77
2019-02-06T00:50:41.497Z,99828.00
2019-02-06T00:53:11.019Z,99822.81
2019-02-06T00:55:40.542Z,99821.45
2019-02-06T00:58:10.096Z,99829.88
2019-02-06T01:00:39.933Z,99835.98
2019-02-06T01:03:09.487Z,99841.48
2019-02-06T01:05:39.113Z,99823.05
2019-02-06T01:08:08.699Z,99805.98
2019-02-06T01:10:38.147Z,99807.70
2019-02-06T01:13:07.718Z,99835.20
2019-02-06T01:15:37.568Z,99840.84
2019-02-06T01:18:07.177Z,99832.08
2019-02-06T01:20:36.636Z,99836.28
2019-02-06T01:23:06.285Z,99831.38
2019-02-06T01:25:35.704Z,99842.39
2019-02-06T01:28:05.299Z,99824.88
2019-02-06T01:30:49.537Z,99799.48
2019-02-06T01:33:18.997Z,99783.23
2019-02-06T01:35:50.236Z,99781.98
2019-02-06T01:38:19.612Z,99789.17
2019-02-06T01:40:49.216Z,99802.56
2019-02-06T01:43:19.025Z,99798.77
2019-02-06T01:45:48.468Z,99787.73
2019-02-06T01:48:17.934Z,99772.50
2019-02-06T01:50:47.439Z,99756.33
2019-02-06T01:53:16.924Z,99761.34
2019-02-06T01:55:46.324Z,99758.37
2019-02-06T01:58:15.769Z,99766.82
2019-02-06T02:00:45.395Z,99759.63
2019-02-06T02:03:14.862Z,99755.88
2019-02-06T02:05:44.367Z,99757.87
2019-02-06T02:08:14.039Z,99756.73
2019-02-06T02:10:43.597Z,99761.68
2019-02-06T02:13:13.210Z,99772.92
2019-02-06T02:15:42.756Z,99769.10
2019-02-06T02:18:12.297Z,99763.69
2019-02-06T02:20:42.286Z,99752.84
2019-02-06T02:23:11.802Z,99746.56
2019-02-06T02:25:41.298Z,99748.16
2019-02-06T02:28:10.764Z,99745.78
2019-02-06T02:30:46.805Z,99741.83
2019-02-06T02:33:16.285Z,99734.89
2019-02-06T02:35:45.801Z,99729.01
2019-02-06T02:38:15.742Z,99714.13
2019-02-06T02:40:45.219Z,99698.89
2019-02-06T02:43:14.697Z,99692.73
2019-02-06T02:45:44.158Z,99704.67
2019-02-06T02:48:13.648Z,99711.74
2019-02-06T02:50:43.115Z,99709.81
2019-02-06T02:53:12.878Z,99715.97
2019-02-06T02:55:42.305Z,99710.70
2019-02-06T02:58:11.885Z,99709.41
2019-02-06T03:01:03.551Z,99713.16
2019-02-06T03:03:43.076Z,99717.23
2019-02-06T03:06:12.940Z,99713.74
2019-02-06T03:08:42.355Z,99712.33
2019-02-06T03:11:12.062Z,99707.70
2019-02-06T03:13:41.568Z,99717.39
2019-02-06T03:16:10.984Z,99714.47
2019-02-06T03:18:40.541Z,99700.45
2019-02-06T03:21:10.276Z,99684.10
2019-02-06T03:23:39.849Z,99680.81
2019-02-06T03:26:09.369Z,99688.91
2019-02-06T03:28:39.011Z,99689.92
2019-02-06T03:31:08.523Z,99687.00
2019-02-06T03:33:37.954Z,99695.78
2019-02-06T03:36:07.873Z,99701.19
2019-02-06T03:38:37.376Z,99692.72
2019-02-06T03:41:07.423Z,99698.69
2019-02-06T03:43:36.857Z,99694.13
2019-02-06T03:46:06.612Z,99693.55
2019-02-06T03:48:36.092Z,99694.94
2019-02-06T03:51:06.073Z,99696.47
2019-02-06T03:53:35.509Z,99700.25
2019-02-06T03:56:05.051Z,99693.67
2019-02-06T03:58:34.566Z,99687.23
2019-02-06T04:01:04.120Z,99676.02
2019-02-06T04:03:33.716Z,99669.34
2019-02-06T04:06:03.611Z,99667.75
2019-02-06T04:08:33.059Z,99668.13
2019-02-06T04:11:02.795Z,99686.05
2019-02-06T04:13:32.224Z,99695.69
2019-02-06T04:16:01.731Z,99699.67
2019-02-06T04:18:31.222Z,99694.94
2019-02-06T04:21:01.018Z,99702.34
2019-02-06T04:23:30.580Z,99711.42
2019-02-06T04:26:00.139Z,99707.54
2019-02-06T04:28:29.607Z,99707.94
2019-02-06T04:30:59.017Z,99702.34
2019-02-06T04:33:28.523Z,99708.77
2019-02-06T04:35:58.307Z,99700.12
2019-02-06T04:38:27.772Z,99699.43
2019-02-06T04:40:57.397Z,99706.06
2019-02-06T04:43:26.913Z,99705.87
2019-02-06T04:45:56.332Z,99703.64
2019-02-06T04:48:25.831Z,99709.63
2019-02-06T04:50:55.605Z,99724.63
2019-02-06T04:53:25.036Z,99731.41
2019-02-06T04:55:54.522Z,99738.91
2019-02-06T04:58:24.024Z,99741.18
2019-02-06T05:00:53.542Z,99744.16
2019-02-06T05:03:25.711Z,99742.73
2019-02-06T05:05:54.129Z,99737.14
2019-02-06T05:08:23.629Z,99738.83
2019-02-06T05:10:53.398Z,99743.02
2019-02-06T05:13:22.795Z,99748.07
2019-02-06T05:15:52.192Z,99753.50
2019-02-06T05:18:21.665Z,99763.96
2019-02-06T05:20:51.412Z,99769.27
2019-02-06T05:23:20.886Z,99775.26
2019-02-06T05:25:50.590Z,99777.20
2019-02-06T05:28:20.074Z,99787.42
2019-02-06T05:30:49.462Z,99792.07
2019-02-06T05:33:19.092Z,99792.06
2019-02-06T05:35:48.866Z,99793.95
2019-02-06T05:38:18.344Z,99802.59
2019-02-06T05:40:48.092Z,99806.88
2019-02-06T05:43:17.590Z,99811.92
2019-02-06T05:45:47.062Z,99812.77
2019-02-06T05:48:16.497Z,99819.52
2019-02-06T05:50:45.881Z,99816.99
2019-02-06T05:53:15.342Z,99820.67
2019-02-06T05:55:44.914Z,99814.39
2019-02-06T05:58:14.386Z,99812.63
2019-02-06T06:00:45.861Z,99822.84
2019-02-06T06:03:15.571Z,99810.27
2019-02-06T06:05:44.963Z,99820.70
2019-02-06T06:08:14.396Z,99831.63
2019-02-06T06:10:43.922Z,99836.46
2019-02-06T06:13:13.365Z,99839.41
2019-02-06T06:15:43.740Z,99847.03
2019-02-06T06:18:13.237Z,99846.98
2019-02-06T06:20:42.735Z,99848.66
2019-02-06T06:23:14.041Z,99848.74
2019-02-06T06:25:43.694Z,99853.27
2019-02-06T06:28:13.152Z,99854.38
2019-02-06T06:30:42.599Z,99857.64
2019-02-06T06:33:12.260Z,99850.54
2019-02-06T06:35:41.646Z,99848.03
2019-02-06T06:38:11.265Z,99845.52
2019-02-06T06:40:40.724Z,99837.55
2019-02-06T06:43:10.192Z,99834.36
2019-02-06T06:45:39.679Z,99827.02
2019-02-06T06:48:09.161Z,99823.19
2019-02-06T06:50:38.544Z,99825.61
2019-02-06T06:53:08.375Z,99828.59
2019-02-06T06:55:37.902Z,99817.49
2019-02-06T06:58:07.349Z,99804.11
2019-02-06T07:00:36.755Z,99812.86
2019-02-06T07:03:06.343Z,99821.77
2019-02-06T07:05:36.085Z,99836.16
2019-02-06T07:08:09.606Z,99848.07
2019-02-06T07:10:37.185Z,99858.78
2019-02-06T07:13:06.714Z,99864.45
2019-02-06T07:15:36.519Z,99858.47
2019-02-06T07:18:06.381Z,99865.30
2019-02-06T07:20:35.818Z,99854.85
2019-02-06T07:23:05.476Z,99855.89
2019-02-06T07:25:34.906Z,99850.47
2019-02-06T07:28:04.353Z,99851.15
2019-02-06T07:30:35.807Z,99850.84
2019-02-06T07:33:05.616Z,99851.38
2019-02-06T07:35:35.005Z,99848.73
2019-02-06T07:38:04.553Z,99851.42
2019-02-06T07:40:34.086Z,99849.76
2019-02-06T07:43:03.606Z,99842.75
2019-02-06T07:45:33.478Z,99854.23
2019-02-06T07:48:02.967Z,99856.42
2019-02-06T07:50:33.481Z,99849.80
2019-02-06T07:53:02.882Z,99845.52
2019-02-06T07:55:32.351Z,99838.47
2019-02-06T07:58:01.838Z,99842.19
2019-02-06T08:00:31.388Z,99836.83
2019-02-06T08:03:01.028Z,99840.58
2019-02-06T08:05:30.795Z,99841.11
2019-02-06T08:08:00.262Z,99845.17
2019-02-06T08:10:31.685Z,99841.11
2019-02-06T08:13:01.550Z,99847.68
2019-02-06T08:15:31.239Z,99863.38
2019-02-06T08:18:00.730Z,99877.02
2019-02-06T08:20:30.224Z,99879.27
2019-02-06T08:22:59.762Z,99884.02
2019-02-06T08:25:29.506Z,99882.78
2019-02-06T08:27:58.938Z,99882.93
2019-02-06T08:30:39.274Z,99880.41
2019-02-06T08:33:08.760Z,99884.66
2019-02-06T08:35:38.330Z,99884.74
2019-02-06T08:38:07.782Z,99891.53
2019-02-06T08:40:37.172Z,99900.41
2019-02-06T08:43:06.651Z,99902.74
2019-02-06T08:45:36.348Z,99906.56
2019-02-06T08:48:05.946Z,99905.80
2019-02-06T08:50:35.344Z,99905.94
2019-02-06T08:53:05.018Z,99920.03
2019-02-06T08:55:34.848Z,99927.31
2019-02-06T08:58:04.785Z,99934.52
2019-02-06T09:00:36.367Z,99924.86
2019-02-06T09:03:06.998Z,99917.58
2019-02-06T09:05:36.643Z,99919.52
2019-02-06T09:08:06.681Z,99916.97
2019-02-06T09:10:36.927Z,99917.51
2019-02-06T09:13:07.090Z,99914.09
2019-02-06T09:15:36.655Z,99924.75
2019-02-06T09:18:06.741Z,99934.22
2019-02-06T09:20:36.191Z,99942.22
2019-02-06T09:23:05.866Z,99946.53
2019-02-06T09:25:35.247Z,99953.95
2019-02-06T09:28:04.790Z,99965.64
2019-02-06T09:30:34.938Z,99968.85
2019-02-06T09:33:05.072Z,99966.97
2019-02-06T09:35:34.466Z,99973.80
2019-02-06T09:38:04.189Z,99977.66
2019-02-06T09:40:33.769Z,99981.95
2019-02-06T09:43:03.214Z,99979.67
2019-02-06T09:45:32.685Z,99978.44
2019-02-06T09:48:02.133Z,99982.53
2019-02-06T09:50:36.659Z,99989.78
2019-02-06T09:53:06.329Z,99990.06
2019-02-06T09:55:36.223Z,99988.41
2019-02-06T09:58:06.528Z,99987.91
2019-02-06T10:00:37.767Z,99987.17
2019-02-06T10:03:07.909Z,99991.53
2019-02-06T10:05:37.423Z,99998.11
2019-02-06T10:08:06.968Z,99995.63
2019-02-06T10:10:36.354Z,99991.59
2019-02-06T10:13:06.713Z,100002.59
2019-02-06T10:15:37.744Z,100002.84
2019-02-06T10:18:08.320Z,99998.20
2019-02-06T10:20:43.507Z,99994.08
2019-02-06T10:23:13.272Z,99988.88
2019-02-06T10:25:42.787Z,99987.92
2019-02-06T10:28:12.394Z,99981.55
2019-02-06T10:30:44.577Z,99979.67
2019-02-06T10:33:14.141Z,99971.93
2019-02-06T10:35:44.150Z,99971.70
2019-02-06T10:38:13.703Z,99961.70
2019-02-06T10:40:43.168Z,99967.82
2019-02-06T10:43:12.643Z,99970.23
2019-02-06T10:45:42.199Z,99971.47
2019-02-06T10:48:11.637Z,99968.73
2019-02-06T10:50:52.450Z,99973.06
2019-02-06T10:53:21.946Z,99966.79
2019-02-06T10:55:51.342Z,99967.74
2019-02-06T10:58:21.203Z,99967.14
2019-02-06T11:00:56.065Z,99957.89
2019-02-06T11:03:25.782Z,99955.55
2019-02-06T11:05:55.261Z,99959.72
2019-02-06T11:08:24.695Z,99954.00
2019-02-06T11:10:54.518Z,99957.89
2019-02-06T11:13:24.053Z,99956.23
2019-02-06T11:15:53.556Z,99962.29
2019-02-06T11:18:23.152Z,99950.14
2019-02-06T11:20:52.720Z,99950.20
2019-02-06T11:23:22.152Z,99950.42
2019-02-06T11:25:51.724Z,99953.86
2019-02-06T11:28:21.160Z,99955.91
2019-02-06T11:30:50.632Z,99966.12
2019-02-06T11:33:20.150Z,99968.03
2019-02-06T11:35:49.504Z,99970.33
2019-02-06T11:38:18.963Z,99965.61
2019-02-06T11:40:48.580Z,99972.84
2019-02-06T11:43:17.992Z,99968.55
2019-02-06T11:45:47.399Z,99970.37
2019-02-06T11:48:16.969Z,99974.73
2019-02-06T11:50:46.469Z,99973.81
2019-02-06T11:53:21.253Z,99979.53
2019-02-06T11:55:50.890Z,99978.21
2019-02-06T11:58:20.308Z,99983.81
2019-02-06T12:01:02.950Z,99987.09
2019-02-06T12:03:32.374Z,99991.36
2019-02-06T12:06:02.079Z,99985.72
2019-02-06T12:08:31.883Z,99985.81
2019-02-06T12:11:01.238Z,99992.36
2019-02-06T12:13:30.650Z,99995.41
2019-02-06T12:16:00.300Z,99994.10
2019-02-06T12:18:30.764Z,99990.52
2019-02-06T12:21:00.149Z,99992.95
2019-02-06T12:23:32.331Z,99988.70
2019-02-06T12:26:01.188Z,99991.53
2019-02-06T12:28:30.600Z,99998.51
2019-02-06T12:31:00.026Z,99987.02
2019-02-06T12:33:29.459Z,99993.05
2019-02-06T12:35:58.939Z,99988.59
2019-02-06T12:38:28.819Z,99992.95
2019-02-06T12:40:58.245Z,99994.48
2019-02-06T12:43:27.670Z,99999.18
2019-02-06T12:45:57.233Z,99996.14
2019-02-06T12:48:26.698Z,99993.84
2019-02-06T12:50:56.171Z,99993.89
2019-02-06T12:53:25.669Z,99996.80
2019-02-06T12:55:55.505Z,99997.45
2019-02-06T12:58:26.263Z,99996.66
2019-02-06T13:00:55.950Z,99993.98
2019-02-06T13:03:25.441Z,99992.80
2019-02-06T13:05:54.773Z,100002.48
2019-02-06T13:08:25.256Z,99996.11
2019-02-06T13:10:54.803Z,99991.97
2019-02-06T13:13:24.214Z,99988.64
2019-02-06T13:15:53.711Z,99983.86
2019-02-06T13:18:24.233Z,99981.64
2019-02-06T13:20:53.998Z,99980.61
2019-02-06T13:23:23.538Z,99981.34
2019-02-06T13:25:53.099Z,99981.34
2019-02-06T13:28:22.513Z,99979.47
2019-02-06T13:30:51.949Z,99979.47
2019-02-06T13:33:21.412Z,99981.34
2019-02-06T13:35:50.848Z,99974.61
2019-02-06T13:38:23.054Z,99975.22
2019-02-06T13:40:51.398Z,99971.30
2019-02-06T13:43:20.823Z,99971.28
2019-02-06T13:45:50.503Z,99969.41
2019-02-06T13:48:19.971Z,99966.84
2019-02-06T13:50:49.410Z,99966.48
2019-02-06T13:53:18.878Z,99968.22
2019-02-06T13:55:48.931Z,99964.66
2019-02-06T13:58:20.162Z,99966.60
2019-02-06T14:00:52.343Z,99967.21
2019-02-06T14:03:20.841Z,99967.38
2019-02-06T14:05:50.339Z,99969.91
2019-02-06T14:08:19.797Z,99964.53
2019-02-06T14:10:58.581Z,99971.45
2019-02-06T14:13:20.585Z,99964.48
2019-02-06T14:15:50.751Z,99962.98
2019-02-06T14:18:20.163Z,99963.71
2019-02-06T14:20:52.451Z,99969.01
2019-02-06T14:23:38.776Z,99975.22
2019-02-06T14:26:35.898Z,99983.20
2019-02-06T14:29:44.979Z,99986.37
2019-02-06T14:32:59.564Z,99986.02
2019-02-06T14:35:59.266Z,99991.38
2019-02-06T14:39:20.107Z,99994.55
2019-02-06T14:42:24.092Z,100002.02
2019-02-06T14:45:39.326Z,100004.08
2019-02-06T14:49:00.034Z,99998.44
2019-02-06T14:52:05.632Z,100000.39
2019-02-06T14:54:47.552Z,100010.44
2019-02-06T14:57:58.375Z,100006.48
2019-02-06T15:01:02.812Z,100011.47
2019-02-06T15:03:49.326Z,100013.64
2019-02-06T15:07:05.934Z,100010.66
2019-02-06T15:10:14.714Z,100014.19
2019-02-06T15:13:20.470Z,100013.52
2019-02-06T15:16:19.774Z,100007.46
2019-02-06T15:19:20.948Z,100014.97
2019-02-06T15:22:37.222Z,100011.48
2019-02-06T15:25:37.077Z,100009.31
2019-02-06T15:28:53.289Z,100001.59
2019-02-06T15:31:59.957Z,100008.42
2019-02-06T15:35:16.087Z,100007.72
2019-02-06T15:38:19.418Z,100018.45
2019-02-06T15:41:34.775Z,100025.13
2019-02-06T15:44:29.413Z,100021.44
2019-02-06T15:47:28.579Z,100024.95
2019-02-06T15:50:26.866Z,100028.20
2019-02-06T15:53:49.351Z,100030.34
2019-02-06T15:57:20.222Z,100031.57
2019-02-06T16:00:40.684Z,100034.59
2019-02-06T16:04:04.436Z,100040.37
2019-02-06T16:07:01.578Z,100048.23
2019-02-06T16:10:09.020Z,100046.51
2019-02-06T16:13:06.648Z,100049.78
2019-02-06T16:15:46.237Z,100050.27
2019-02-06T16:18:42.797Z,100052.89
2019-02-06T16:21:53.351Z,100068.11
2019-02-06T16:25:05.519Z,100064.95
2019-02-06T16:28:15.733Z,100076.50
2019-02-06T16:31:20.642Z,100076.17
2019-02-06T16:34:31.094Z,100079.86
2019-02-06T16:38:14.448Z,100080.22
2019-02-06T16:41:21.008Z,100089.75
2019-02-06T16:44:21.905Z,100080.33
2019-02-06T16:47:13.835Z,100083.81
2019-02-06T16:50:13.682Z,100092.13
2019-02-06T16:53:06.355Z,100097.65
2019-02-06T16:56:11.488Z,100099.70
2019-02-06T16:59:06.187Z,100099.41
2019-02-06T17:02:06.644Z,100097.77
2019-02-06T17:05:07.609Z,100106.56
2019-02-06T17:08:26.691Z,100107.76
2019-02-06T17:11:42.104Z,100110.19
2019-02-06T17:15:04.616Z,100109.89
2019-02-06T17:17:50.109Z,100103.30
2019-02-06T17:20:51.700Z,100108.98
2019-02-06T17:24:00.928Z,100120.80
2019-02-06T17:27:01.848Z,100128.51
2019-02-06T17:29:59.821Z,100127.05
2019-02-06T17:32:54.393Z,100126.23
2019-02-06T17:36:16.188Z,100119.94
2019-02-06T17:39:24.585Z,100124.95
2019-02-06T17:42:15.840Z,100130.31
2019-02-06T17:45:27.159Z,100135.13
2019-02-06T17:48:36.362Z,100137.27
2019-02-06T17:51:42.013Z,100137.19
2019-02-06T17:54:35.003Z,100139.88
2019-02-06T17:57:04.814Z,100138.72
2019-02-06T17:59:34.200Z,100138.11
2019-02-06T18:02:03.756Z,100140.02
2019-02-06T18:04:37.787Z,100143.29
2019-02-06T18:07:07.728Z,100136.55
2019-02-06T18:09:37.635Z,100138.05
2019-02-06T18:12:07.597Z,100142.86
2019-02-06T18:14:37.182Z,100136.40
2019-02-06T18:17:06.574Z,100149.75
2019-02-06T18:19:40.571Z,100145.16
2019-02-06T18:22:10.542Z,100150.77
2019-02-06T18:24:40.036Z,100146.16
2019-02-06T18:27:10.234Z,100150.09
2019-02-06T18:29:39.762Z,100151.25
2019-02-06T18:32:09.393Z,100153.53
2019-02-06T18:34:39.064Z,100158.88
2019-02-06T18:37:08.819Z,100161.88
2019-02-06T18:39:38.337Z,100161.50
2019-02-06T18:42:07.836Z,100161.64
2019-02-06T18:44:37.357Z,100165.57
2019-02-06T18:47:06.830Z,100166.95
2019-02-06T18:49:37.911Z,100167.52
2019-02-06T18:52:07.709Z,100173.17
2019-02-06T18:54:37.288Z,100175.89
2019-02-06T18:57:07.908Z,100177.17
2019-02-06T18:59:37.315Z,100186.00
2019-02-06T19:02:07.011Z,100184.48
2019-02-06T19:04:36.522Z,100187.41
2019-02-06T19:07:06.059Z,100188.09
2019-02-06T19:09:35.587Z,100198.05
2019-02-06T19:12:05.372Z,100195.16
2019-02-06T19:14:35.187Z,100197.26
2019-02-06T19:17:04.812Z,100192.91
2019-02-06T19:19:34.181Z,100193.88
2019-02-06T19:22:03.700Z,100187.94
2019-02-06T19:24:33.341Z,100192.34
2019-02-06T19:27:02.720Z,100197.47
2019-02-06T19:29:32.356Z,100202.05
2019-02-06T19:32:01.827Z,100203.94
2019-02-06T19:34:31.287Z,100202.42
2019-02-06T19:37:00.982Z,100206.20
2019-02-06T19:39:30.509Z,100208.80
2019-02-06T19:41:59.990Z,100209.90
2019-02-06T19:44:29.867Z,100207.31
2019-02-06T19:46:59.270Z,100212.89
2019-02-06T19:49:28.847Z,100209.97
2019-02-06T19:51:58.551Z,100220.20
2019-02-06T19:54:27.947Z,100222.78
2019-02-06T19:56:57.419Z,100224.82
2019-02-06T19:59:26.940Z,100232.56
2019-02-06T20:01:56.791Z,100230.50
2019-02-06T20:04:26.198Z,100236.19
2019-02-06T20:06:55.609Z,100242.59
2019-02-06T20:09:25.188Z,100237.39
2019-02-06T20:11:54.676Z,100239.18
2019-02-06T20:14:24.256Z,100243.97
2019-02-06T20:16:53.637Z,100252.06
2019-02-06T20:19:23.492Z,100254.55
2019-02-06T20:21:53.025Z,100252.52
2019-02-06T20:24:22.411Z,100257.81
2019-02-06T20:26:51.812Z,100260.30
2019-02-06T20:29:21.474Z,100261.67
2019-02-06T20:31:51.053Z,100260.69
2019-02-06T20:34:20.433Z,100261.52
2019-02-06T20:36:50.045Z,100258.91
2019-02-06T20:39:19.603Z,100257.87
2019-02-06T20:41:48.972Z,100257.84
2019-02-06T20:44:18.512Z,100257.08
2019-02-06T20:46:48.090Z,100248.41
2019-02-06T20:49:17.533Z,100253.03
2019-02-06T20:51:46.953Z,100256.64
2019-02-06T20:54:16.448Z,100256.80
2019-02-06T20:56:46.357Z,100259.45
2019-02-06T20:59:15.939Z,100252.45
2019-02-06T21:01:45.319Z,100245.19
2019-02-06T21:04:14.798Z,100241.77
2019-02-06T21:06:44.299Z,100248.47
2019-02-06T21:09:17.025Z,100247.41
2019-02-06T21:11:46.412Z,100247.89
2019-02-06T21:14:16.100Z,100246.75
2019-02-06T21:16:45.566Z,100241.77
2019-02-06T21:19:14.939Z,100240.62
2019-02-06T21:21:44.469Z,100245.23
2019-02-06T21:24:14.196Z,100242.87
2019-02-06T21:26:44.475Z,100244.48
2019-02-06T21:29:14.249Z,100239.08
2019-02-06T21:31:43.865Z,100234.67
2019-02-06T21:34:13.239Z,100236.16
2019-02-06T21:36:42.667Z,100236.53
2019-02-06T21:39:12.144Z,100248.86
2019-02-06T21:41:41.618Z,100248.86
2019-02-06T21:44:11.022Z,100245.90
2019-02-06T21:46:40.400Z,100251.14
2019-02-06T21:49:09.960Z,100251.55
2019-02-06T21:51:39.590Z,100255.89
2019-02-06T21:54:08.965Z,100252.64
2019-02-06T21:56:38.343Z,100253.28
2019-02-06T21:59:08.015Z,100253.61
2019-02-06T22:01:37.412Z,100256.29
2019-02-06T22:04:07.283Z,100256.98
2019-02-06T22:06:36.805Z,100264.99
2019-02-06T22:09:10.767Z,100258.90
2019-02-06T22:11:40.192Z,100260.59
2019-02-06T22:14:09.774Z,100264.84
2019-02-06T22:16:39.233Z,100253.03
2019-02-06T22:19:08.814Z,100259.64
2019-02-06T22:21:38.465Z,100255.11
2019-02-06T22:24:07.931Z,100253.52
2019-02-06T22:26:37.437Z,100252.23
2019-02-06T22:29:06.807Z,100251.69
2019-02-06T22:31:36.480Z,100256.02
2019-02-06T22:34:06.543Z,100243.77
2019-02-06T22:36:36.219Z,100243.71
2019-02-06T22:39:11.364Z,100243.14
2019-02-06T22:41:40.879Z,100235.86
2019-02-06T22:44:10.267Z,100237.05
2019-02-06T22:46:39.699Z,100230.84
2019-02-06T22:49:09.969Z,100227.53
2019-02-06T22:51:39.510Z,100222.95
2019-02-06T22:54:09.361Z,100225.92
2019-02-06T22:56:41.137Z,100219.31
2019-02-06T22:59:10.021Z,100219.83
2019-02-06T23:01:54.604Z,100209.84
2019-02-06T23:04:24.030Z,100214.42
2019-02-06T23:06:53.412Z,100208.28
2019-02-06T23:09:22.889Z,100203.16
2019-02-06T23:11:52.410Z,100202.91
2019-02-06T23:14:21.807Z,100201.88
2019-02-06T23:16:51.218Z,100196.98
2019-02-06T23:19:20.732Z,100198.26
2019-02-06T23:21:50.122Z,100194.81
2019-02-06T23:24:19.681Z,100191.14
2019-02-06T23:26:49.187Z,100190.96
2019-02-06T23:29:18.955Z,100191.34
2019-02-06T23:31:48.367Z,100195.86
2019-02-06T23:34:17.893Z,100193.09
2019-02-06T23:36:47.367Z,100195.06
2019-02-06T23:39:18.144Z,100198.26
2019-02-06T23:41:47.748Z,100199.53
2019-02-06T23:44:28.346Z,100200.32
2019-02-06T23:46:48.789Z,100201.52
2019-02-06T23:49:18.256Z,100205.55
2019-02-06T23:51:47.652Z,100208.73
2019-02-06T23:54:17.177Z,100202.05
2019-02-06T23:56:46.700Z,100210.35
2019-02-06T23:59:16.080Z,100214.86
